createdAt,value
2023-04-08T00:01:02.091Z,16.80
2023-04-08T00:03:29.624Z,16.90
2023-04-08T00:05:56.872Z,16.00
2023-04-08T00:08:24.100Z,15.60
2023-04-08T00:10:51.229Z,16.60
2023-04-08T00:13:18.279Z,19.30
2023-04-08T00:15:46.156Z,20.80
2023-04-08T00:18:15.963Z,23.00
2023-04-08T00:20:43.875Z,20.80
2023-04-08T00:23:11.152Z,22.70
2023-04-08T00:25:38.301Z,19.20
2023-04-08T00:28:05.351Z,18.90
2023-04-08T00:30:32.514Z,16.20
2023-04-08T00:32:59.759Z,18.80
2023-04-08T00:35:27.114Z,19.50
2023-04-08T00:37:54.209Z,24.20
2023-04-08T00:40:21.391Z,21.80
2023-04-08T00:42:48.545Z,24.60
2023-04-08T00:45:16.145Z,25.40
2023-04-08T00:47:44.032Z,22.70
2023-04-08T00:50:11.883Z,19.90
2023-04-08T00:52:39.237Z,17.50
2023-04-08T00:55:06.853Z,14.90
2023-04-08T00:57:34.085Z,13.30
2023-04-08T01:00:01.478Z,12.60
2023-04-08T01:02:39.561Z,11.30
2023-04-08T01:05:13.536Z,11.30
2023-04-08T01:07:50.851Z,10.80
2023-04-08T01:10:22.375Z,9.30
2023-04-08T01:12:56.687Z,8.70
2023-04-08T01:15:27.877Z,9.40
2023-04-08T01:17:56.913Z,9.30
2023-04-08T01:20:26.172Z,9.60
2023-04-08T01:23:18.261Z,9.40
2023-04-08T01:25:52.042Z,9.40
2023-04-08T01:28:21.280Z,11.20
2023-04-08T01:30:50.141Z,11.00
2023-04-08T01:33:19.900Z,11.40
2023-04-08T01:35:47.060Z,9.90
2023-04-08T01:38:19.925Z,9.70
2023-04-08T01:40:49.811Z,9.60
2023-04-08T01:43:19.157Z,10.60
2023-04-08T01:45:48.217Z,10.30
2023-04-08T01:48:16.248Z,11.00
2023-04-08T01:50:45.115Z,11.60
2023-04-08T01:53:14.099Z,9.50
2023-04-08T01:55:43.268Z,9.70
2023-04-08T01:58:20.214Z,8.60
2023-04-08T02:00:48.485Z,8.70
2023-04-08T02:03:19.227Z,9.10
2023-04-08T02:05:46.864Z,9.80
2023-04-08T02:08:14.001Z,8.90
2023-04-08T02:10:41.259Z,11.70
2023-04-08T02:13:08.792Z,15.00
2023-04-08T02:15:42.193Z,15.60
2023-04-08T02:18:13.797Z,15.90
2023-04-08T02:20:46.711Z,15.70
2023-04-08T02:23:20.829Z,15.00
2023-04-08T02:25:48.871Z,14.90
2023-04-08T02:28:18.946Z,17.00
2023-04-08T02:30:50.970Z,18.40
2023-04-08T02:33:23.363Z,15.50
2023-04-08T02:35:56.148Z,13.00
2023-04-08T02:38:24.387Z,14.40
2023-04-08T02:40:51.846Z,13.20
2023-04-08T02:43:18.998Z,29.00
2023-04-08T02:45:46.556Z,23.30
2023-04-08T02:48:15.472Z,21.70
2023-04-08T02:50:42.564Z,21.50
2023-04-08T02:53:10.045Z,33.30
2023-04-08T02:55:37.252Z,33.60
2023-04-08T02:58:04.436Z,25.10
2023-04-08T03:00:31.885Z,21.70
2023-04-08T03:02:59.104Z,17.70
2023-04-08T03:05:27.032Z,25.90
2023-04-08T03:07:54.111Z,19.00
2023-04-08T03:10:21.306Z,15.30
2023-04-08T03:12:48.429Z,14.50
2023-04-08T03:15:15.887Z,14.20
2023-04-08T03:17:43.098Z,13.50
2023-04-08T03:20:10.895Z,15.60
2023-04-08T03:22:38.047Z,12.70
2023-04-08T03:25:05.514Z,13.30
2023-04-08T03:27:32.772Z,14.30
2023-04-08T03:29:59.969Z,12.10
2023-04-08T03:32:27.306Z,13.90
2023-04-08T03:34:54.573Z,16.90
2023-04-08T03:37:21.608Z,14.80
2023-04-08T03:39:48.790Z,12.70
2023-04-08T03:42:15.950Z,15.00
2023-04-08T03:44:43.175Z,20.80
2023-04-08T03:47:10.381Z,18.80
2023-04-08T03:49:37.634Z,18.10
2023-04-08T03:52:04.760Z,18.40
2023-04-08T03:54:31.868Z,21.10
2023-04-08T03:56:58.983Z,20.20
2023-04-08T03:59:26.120Z,19.80
2023-04-08T04:01:53.819Z,18.70
2023-04-08T04:04:21.353Z,17.30
2023-04-08T04:06:48.833Z,16.30
2023-04-08T04:09:16.983Z,15.80
2023-04-08T04:11:44.169Z,15.70
2023-04-08T04:14:11.592Z,15.40
2023-04-08T04:16:38.771Z,15.40
2023-04-08T04:19:06.204Z,17.00
2023-04-08T04:21:33.196Z,19.40
2023-04-08T04:24:00.282Z,18.70
2023-04-08T04:26:27.370Z,17.90
2023-04-08T04:28:54.398Z,15.40
2023-04-08T04:31:23.302Z,15.10
2023-04-08T04:33:50.641Z,14.60
2023-04-08T04:36:17.945Z,15.10
2023-04-08T04:38:45.084Z,17.30
2023-04-08T04:41:12.740Z,19.20
2023-04-08T04:43:39.894Z,18.10
2023-04-08T04:46:09.181Z,15.70
2023-04-08T04:48:36.671Z,14.50
2023-04-08T04:51:04.091Z,13.00
2023-04-08T04:53:31.914Z,12.50
2023-04-08T04:56:01.355Z,12.10
2023-04-08T04:58:28.908Z,11.20
2023-04-08T05:00:56.532Z,11.60
2023-04-08T05:03:23.958Z,11.10
2023-04-08T05:05:52.864Z,16.10
2023-04-08T05:08:20.763Z,20.70
2023-04-08T05:10:50.299Z,21.70
2023-04-08T05:13:24.958Z,18.70
2023-04-08T05:15:58.944Z,20.80
2023-04-08T05:18:26.147Z,22.30
2023-04-08T05:20:53.266Z,23.50
2023-04-08T05:23:20.416Z,22.20
2023-04-08T05:25:47.412Z,21.10
2023-04-08T05:28:14.406Z,19.00
2023-04-08T05:30:42.089Z,18.60
2023-04-08T05:33:09.186Z,18.00
2023-04-08T05:35:36.334Z,18.70
2023-04-08T05:38:03.573Z,18.40
2023-04-08T05:40:30.673Z,19.40
2023-04-08T05:42:57.698Z,16.90
2023-04-08T05:45:24.824Z,15.60
2023-04-08T05:47:51.918Z,16.40
2023-04-08T05:50:19.020Z,17.50
2023-04-08T05:52:46.178Z,19.20
2023-04-08T05:55:14.490Z,17.80
2023-04-08T05:57:42.141Z,17.10
2023-04-08T06:00:10.752Z,16.60
2023-04-08T06:02:38.967Z,23.10
2023-04-08T06:05:06.817Z,19.80
2023-04-08T06:07:34.665Z,14.70
2023-04-08T06:10:02.238Z,13.50
2023-04-08T06:12:29.640Z,16.80
2023-04-08T06:14:57.915Z,14.10
2023-04-08T06:17:25.043Z,14.60
2023-04-08T06:19:52.241Z,13.30
2023-04-08T06:22:19.402Z,12.10
2023-04-08T06:24:48.361Z,22.50
2023-04-08T06:27:16.120Z,16.60
2023-04-08T06:29:43.443Z,14.20
2023-04-08T06:32:11.731Z,16.00
2023-04-08T06:34:39.012Z,15.70
2023-04-08T06:37:06.573Z,11.80
2023-04-08T06:39:34.310Z,11.50
2023-04-08T06:42:01.877Z,12.40
2023-04-08T06:44:45.073Z,13.50
2023-04-08T06:47:12.167Z,22.20
2023-04-08T06:49:39.272Z,20.80
2023-04-08T06:52:07.115Z,12.60
2023-04-08T06:54:34.366Z,15.10
2023-04-08T06:57:01.460Z,15.20
2023-04-08T06:59:28.613Z,16.20
2023-04-08T07:01:56.039Z,17.60
2023-04-08T07:04:23.449Z,14.40
2023-04-08T07:06:50.499Z,21.30
2023-04-08T07:09:17.555Z,14.80
2023-04-08T07:11:44.910Z,26.10
2023-04-08T07:14:12.466Z,17.90
2023-04-08T07:16:39.461Z,15.60
2023-04-08T07:19:06.868Z,20.00
2023-04-08T07:21:33.915Z,13.70
2023-04-08T07:24:01.107Z,23.30
2023-04-08T07:26:28.758Z,22.40
2023-04-08T07:28:56.058Z,20.10
2023-04-08T07:31:23.281Z,20.60
2023-04-08T07:33:50.421Z,18.30
2023-04-08T07:36:18.546Z,15.30
2023-04-08T07:38:46.186Z,14.80
2023-04-08T07:41:13.338Z,13.50
2023-04-08T07:43:40.896Z,16.30
2023-04-08T07:46:08.060Z,15.40
2023-04-08T07:48:35.715Z,15.10
2023-04-08T07:51:11.103Z,14.20
2023-04-08T07:53:40.698Z,15.60
2023-04-08T07:56:15.788Z,18.50
2023-04-08T07:58:43.333Z,17.10
2023-04-08T08:01:22.048Z,17.20
2023-04-08T08:03:53.198Z,17.30
2023-04-08T08:06:21.870Z,13.00
2023-04-08T08:08:48.998Z,29.80
2023-04-08T08:11:16.197Z,18.30
2023-04-08T08:13:43.342Z,15.20
2023-04-08T08:16:12.113Z,19.90
2023-04-08T08:18:40.617Z,28.30
2023-04-08T08:21:08.838Z,16.00
2023-04-08T08:23:36.214Z,14.90
2023-04-08T08:26:10.757Z,15.80
2023-04-08T08:28:38.746Z,14.20
2023-04-08T08:31:06.439Z,15.10
2023-04-08T08:33:34.100Z,13.10
2023-04-08T08:36:01.765Z,13.60
2023-04-08T08:38:28.889Z,14.60
2023-04-08T08:41:01.639Z,13.90
2023-04-08T08:43:29.490Z,14.20
2023-04-08T08:45:56.642Z,14.10
2023-04-08T08:48:23.705Z,14.00
2023-04-08T08:50:51.267Z,13.20
2023-04-08T08:53:19.788Z,14.70
2023-04-08T08:56:13.575Z,14.10
2023-04-08T08:58:34.890Z,13.80
2023-04-08T09:01:01.943Z,15.10
2023-04-08T09:03:29.610Z,14.60
2023-04-08T09:06:02.351Z,15.10
2023-04-08T09:08:36.062Z,17.20
2023-04-08T09:11:16.364Z,13.30
2023-04-08T09:13:45.059Z,13.90
2023-04-08T09:16:15.196Z,13.60
2023-04-08T09:18:44.701Z,13.90
2023-04-08T09:21:13.292Z,19.30
2023-04-08T09:23:42.865Z,14.10
2023-04-08T09:26:18.451Z,13.50
2023-04-08T09:31:27.943Z,14.00
2023-04-08T09:34:00.369Z,16.20
2023-04-08T09:36:27.665Z,14.00
2023-04-08T09:38:56.125Z,18.30
2023-04-08T09:41:26.571Z,14.50
2023-04-08T09:43:55.867Z,12.80
2023-04-08T09:46:32.443Z,14.30
2023-04-08T09:49:23.020Z,16.90
2023-04-08T09:51:58.237Z,13.90
2023-04-08T09:54:44.516Z,12.40
2023-04-08T09:57:18.070Z,13.90
2023-04-08T09:59:52.677Z,13.50
2023-04-08T10:02:30.568Z,13.60
2023-04-08T10:05:00.335Z,13.80
2023-04-08T10:07:27.617Z,14.70
2023-04-08T10:09:54.726Z,13.20
2023-04-08T10:12:22.186Z,15.70
2023-04-08T10:15:27.822Z,15.00
2023-04-08T10:18:05.724Z,13.30
2023-04-08T10:20:36.161Z,13.40
2023-04-08T10:23:09.082Z,12.80
2023-04-08T10:25:47.685Z,14.50
2023-04-08T10:28:15.364Z,16.00
2023-04-08T10:30:46.638Z,25.90
2023-04-08T10:33:16.740Z,27.60
2023-04-08T10:35:48.607Z,15.40
2023-04-08T10:38:17.742Z,19.40
2023-04-08T10:40:46.042Z,26.30
2023-04-08T10:43:14.729Z,17.90
2023-04-08T10:45:43.153Z,14.10
2023-04-08T10:48:22.578Z,14.10
2023-04-08T10:50:58.164Z,14.20
2023-04-08T10:56:04.069Z,13.60
2023-04-08T10:58:31.302Z,16.00
2023-04-08T11:01:05.418Z,15.50
2023-04-08T11:03:37.185Z,15.40
2023-04-08T11:06:05.998Z,27.10
2023-04-08T11:08:34.056Z,16.20
2023-04-08T11:11:01.868Z,13.70
2023-04-08T11:13:29.226Z,16.00
2023-04-08T11:15:58.504Z,13.70
2023-04-08T11:18:26.256Z,12.20
2023-04-08T11:20:54.210Z,12.10
2023-04-08T11:23:23.032Z,13.30
2023-04-08T11:25:51.021Z,14.00
2023-04-08T11:28:18.515Z,13.80
2023-04-08T11:30:46.002Z,14.20
2023-04-08T11:33:13.870Z,15.30
2023-04-08T11:35:42.225Z,14.60
2023-04-08T11:38:10.769Z,13.40
2023-04-08T11:40:38.510Z,14.00
2023-04-08T11:43:15.496Z,12.80
2023-04-08T11:45:42.910Z,14.50
2023-04-08T11:48:14.206Z,13.80
2023-04-08T11:50:42.617Z,13.70
2023-04-08T11:53:25.181Z,12.80
2023-04-08T11:55:52.562Z,13.80
2023-04-08T11:58:19.661Z,12.90
2023-04-08T12:00:46.804Z,16.30
2023-04-08T12:03:14.238Z,17.20
2023-04-08T12:05:41.441Z,13.20
2023-04-08T12:08:08.501Z,14.00
2023-04-08T12:10:35.553Z,16.70
2023-04-08T12:13:02.698Z,16.80
2023-04-08T12:15:29.849Z,16.90
2023-04-08T12:17:57.020Z,15.60
2023-04-08T12:20:24.156Z,14.20
2023-04-08T12:22:51.464Z,12.10
2023-04-08T12:25:18.758Z,15.20
2023-04-08T12:27:45.810Z,13.90
2023-04-08T12:30:15.304Z,13.80
2023-04-08T12:32:46.110Z,48.90
2023-04-08T12:35:13.791Z,28.10
2023-04-08T12:37:41.198Z,15.60
2023-04-08T12:40:08.924Z,14.90
2023-04-08T12:42:36.000Z,12.60
2023-04-08T12:45:03.099Z,10.60
2023-04-08T12:47:30.464Z,13.90
2023-04-08T12:49:57.617Z,13.20
2023-04-08T12:52:24.805Z,14.20
2023-04-08T12:54:51.951Z,17.80
2023-04-08T12:57:19.104Z,20.00
2023-04-08T12:59:46.199Z,18.80
2023-04-08T13:02:13.677Z,15.50
2023-04-08T13:04:41.090Z,14.00
2023-04-08T13:07:08.255Z,15.10
2023-04-08T13:09:35.436Z,19.60
2023-04-08T13:12:02.696Z,18.70
2023-04-08T13:14:33.349Z,18.20
2023-04-08T13:17:00.414Z,24.20
2023-04-08T13:19:27.542Z,20.40
2023-04-08T13:21:54.614Z,14.30
2023-04-08T13:24:22.181Z,11.30
2023-04-08T13:26:49.660Z,10.70
2023-04-08T13:29:16.793Z,12.00
2023-04-08T13:31:46.113Z,9.40
2023-04-08T13:34:13.324Z,15.80
2023-04-08T13:36:40.615Z,18.60
2023-04-08T13:39:07.742Z,17.20
2023-04-08T13:41:35.143Z,15.50
2023-04-08T13:44:02.327Z,15.20
2023-04-08T13:46:29.721Z,17.00
2023-04-08T13:48:56.857Z,15.50
2023-04-08T13:51:29.734Z,10.20
2023-04-08T13:53:57.238Z,25.70
2023-04-08T13:56:24.324Z,12.60
2023-04-08T13:58:57.129Z,9.80
2023-04-08T14:01:25.050Z,10.00
2023-04-08T14:03:52.369Z,15.30
2023-04-08T14:06:19.474Z,18.90
2023-04-08T14:08:46.501Z,19.70
2023-04-08T14:11:13.523Z,11.80
2023-04-08T14:13:40.673Z,12.00
2023-04-08T14:16:07.717Z,11.60
2023-04-08T14:18:34.794Z,14.70
2023-04-08T14:21:02.758Z,13.70
2023-04-08T14:23:29.758Z,29.00
2023-04-08T14:25:56.818Z,21.50
2023-04-08T14:28:23.868Z,23.60
2023-04-08T14:30:51.235Z,12.80
2023-04-08T14:33:19.032Z,15.50
2023-04-08T14:35:46.128Z,17.30
2023-04-08T14:38:13.325Z,15.20
2023-04-08T14:40:40.719Z,11.70
2023-04-08T14:43:08.010Z,9.30
2023-04-08T14:45:35.082Z,11.30
2023-04-08T14:48:02.236Z,11.70
2023-04-08T14:50:30.680Z,10.40
2023-04-08T14:52:57.872Z,14.80
2023-04-08T14:55:25.977Z,15.90
2023-04-08T14:57:53.016Z,14.80
2023-04-08T15:00:20.205Z,17.60
2023-04-08T15:02:47.483Z,15.50
2023-04-08T15:05:14.646Z,12.80
2023-04-08T15:07:42.893Z,12.50
2023-04-08T15:10:10.485Z,14.50
2023-04-08T15:12:37.562Z,12.70
2023-04-08T15:15:05.150Z,15.10
2023-04-08T15:17:32.239Z,14.10
2023-04-08T15:19:59.543Z,13.10
2023-04-08T15:22:27.204Z,15.10
2023-04-08T15:24:54.268Z,14.00
2023-04-08T15:27:21.620Z,14.60
2023-04-08T15:29:48.720Z,15.60
2023-04-08T15:32:15.847Z,14.50
2023-04-08T15:34:43.011Z,32.50
2023-04-08T15:37:10.090Z,36.10
2023-04-08T15:39:37.195Z,49.50
2023-04-08T15:42:05.420Z,37.20
2023-04-08T15:44:32.822Z,16.60
2023-04-08T15:47:00.260Z,20.90
2023-04-08T15:49:27.831Z,17.10
2023-04-08T15:51:55.118Z,13.40
2023-04-08T15:54:22.256Z,16.10
2023-04-08T15:56:49.409Z,19.30
2023-04-08T15:59:16.574Z,31.90
2023-04-08T16:01:43.768Z,30.00
2023-04-08T16:04:11.269Z,30.10
2023-04-08T16:06:38.576Z,23.50
2023-04-08T16:09:06.587Z,19.40
2023-04-08T16:11:34.183Z,19.80
2023-04-08T16:14:01.957Z,25.70
2023-04-08T16:16:29.860Z,25.70
2023-04-08T16:18:57.015Z,31.00
2023-04-08T16:21:24.251Z,37.30
2023-04-08T16:23:51.895Z,39.70
2023-04-08T16:26:19.888Z,44.10
2023-04-08T16:28:47.135Z,65.00
2023-04-08T16:31:14.402Z,64.90
2023-04-08T16:33:41.775Z,68.90
2023-04-08T16:36:09.313Z,61.40
2023-04-08T16:38:36.747Z,52.60
2023-04-08T16:41:06.249Z,51.40
2023-04-08T16:43:33.403Z,46.60
2023-04-08T16:46:00.793Z,56.30
2023-04-08T16:48:27.922Z,66.00
2023-04-08T16:50:55.475Z,64.80
2023-04-08T16:53:22.502Z,74.70
2023-04-08T16:55:49.522Z,76.60
2023-04-08T16:58:16.732Z,68.10
2023-04-08T17:00:43.819Z,65.80
2023-04-08T17:03:11.029Z,35.00
2023-04-08T17:05:38.685Z,21.10
2023-04-08T17:08:06.110Z,16.10
2023-04-08T17:10:33.274Z,14.90
2023-04-08T17:13:00.510Z,16.20
2023-04-08T17:15:27.709Z,53.00
2023-04-08T17:17:54.807Z,45.80
2023-04-08T17:20:22.218Z,27.20
2023-04-08T17:22:49.309Z,19.40
2023-04-08T17:25:16.464Z,21.30
2023-04-08T17:27:43.602Z,22.10
2023-04-08T17:30:11.626Z,21.20
2023-04-08T17:32:38.971Z,28.80
2023-04-08T17:35:06.414Z,28.20
2023-04-08T17:37:33.645Z,31.60
2023-04-08T17:40:00.751Z,28.50
2023-04-08T17:42:27.847Z,29.40
2023-04-08T17:44:56.127Z,30.90
2023-04-08T17:47:23.332Z,27.30
2023-04-08T17:49:54.108Z,29.90
2023-04-08T17:52:21.202Z,27.40
2023-04-08T17:54:48.391Z,31.50
2023-04-08T17:57:16.058Z,34.00
2023-04-08T17:59:43.087Z,45.00
2023-04-08T18:02:10.495Z,69.00
2023-04-08T18:04:38.324Z,55.30
2023-04-08T18:07:05.645Z,35.30
2023-04-08T18:09:32.808Z,42.20
2023-04-08T18:12:00.132Z,29.30
2023-04-08T18:14:29.749Z,37.10
2023-04-08T18:16:56.853Z,41.20
2023-04-08T18:19:26.321Z,30.90
2023-04-08T18:21:53.499Z,35.00
2023-04-08T18:24:21.672Z,33.10
2023-04-08T18:27:01.500Z,30.00
2023-04-08T18:29:31.362Z,27.10
2023-04-08T18:31:58.501Z,28.80
2023-04-08T18:34:25.942Z,34.40
2023-04-08T18:36:53.225Z,32.90
2023-04-08T18:39:20.432Z,37.40
2023-04-08T18:41:47.482Z,42.40
2023-04-08T18:44:14.607Z,45.20
2023-04-08T18:46:42.029Z,34.00
2023-04-08T18:49:09.379Z,34.80
2023-04-08T18:51:36.507Z,34.50
2023-04-08T18:54:03.821Z,33.70
2023-04-08T18:56:31.688Z,30.50
2023-04-08T18:58:58.741Z,32.20
2023-04-08T19:01:25.968Z,33.40
2023-04-08T19:03:53.487Z,35.60
2023-04-08T19:06:22.748Z,42.80
2023-04-08T19:08:50.092Z,35.40
2023-04-08T19:11:17.171Z,44.00
2023-04-08T19:13:44.292Z,37.90
2023-04-08T19:16:11.443Z,43.70
2023-04-08T19:18:38.491Z,39.80
2023-04-08T19:21:05.735Z,38.60
2023-04-08T19:23:32.827Z,38.00
2023-04-08T19:25:59.883Z,43.20
2023-04-08T19:28:27.060Z,46.60
2023-04-08T19:30:54.150Z,33.80
2023-04-08T19:33:21.322Z,30.40
2023-04-08T19:35:49.420Z,42.30
2023-04-08T19:38:16.564Z,34.20
2023-04-08T19:40:43.695Z,26.50
2023-04-08T19:43:10.953Z,31.60
2023-04-08T19:45:37.941Z,26.50
2023-04-08T19:48:05.137Z,22.40
2023-04-08T19:50:32.227Z,21.30
2023-04-08T19:52:59.570Z,22.80
2023-04-08T19:55:26.764Z,24.10
2023-04-08T19:57:54.357Z,23.10
2023-04-08T20:00:22.140Z,22.90
2023-04-08T20:02:49.449Z,22.50
2023-04-08T20:05:17.495Z,23.60
2023-04-08T20:07:44.598Z,24.00
2023-04-08T20:10:12.538Z,23.90
2023-04-08T20:12:40.971Z,22.90
2023-04-08T20:15:23.011Z,20.20
2023-04-08T20:17:51.384Z,20.60
2023-04-08T20:20:18.703Z,21.90
2023-04-08T20:22:46.656Z,22.20
2023-04-08T20:25:13.772Z,23.90
2023-04-08T20:27:41.393Z,31.60
2023-04-08T20:30:09.475Z,39.60
2023-04-08T20:32:36.670Z,36.80
2023-04-08T20:35:04.967Z,39.80
2023-04-08T20:37:32.512Z,44.50
2023-04-08T20:39:59.673Z,44.30
2023-04-08T20:42:27.055Z,28.20
2023-04-08T20:44:54.123Z,24.10
2023-04-08T20:47:21.401Z,24.50
2023-04-08T20:49:48.539Z,26.70
2023-04-08T20:52:15.859Z,42.80
2023-04-08T20:54:42.961Z,63.30
2023-04-08T20:57:10.063Z,83.90
2023-04-08T20:59:37.128Z,62.10
2023-04-08T21:02:04.297Z,38.60
2023-04-08T21:04:31.935Z,26.90
2023-04-08T21:06:59.142Z,24.00
2023-04-08T21:09:26.262Z,20.90
2023-04-08T21:11:53.606Z,22.30
2023-04-08T21:14:20.745Z,23.80
2023-04-08T21:16:48.020Z,23.70
2023-04-08T21:19:15.780Z,22.60
2023-04-08T21:21:45.526Z,22.90
2023-04-08T21:24:13.015Z,24.40
2023-04-08T21:26:40.272Z,28.60
2023-04-08T21:29:07.345Z,28.70
2023-04-08T21:31:34.882Z,24.60
2023-04-08T21:34:02.020Z,30.70
2023-04-08T21:36:30.885Z,29.10
2023-04-08T21:38:57.957Z,54.60
2023-04-08T21:41:25.104Z,108.70
2023-04-08T21:43:52.245Z,191.30
2023-04-08T21:46:19.578Z,459.40
2023-04-08T21:48:47.563Z,310.90
2023-04-08T21:51:18.299Z,466.50
2023-04-08T21:53:45.696Z,539.10
2023-04-08T21:56:14.100Z,590.80
2023-04-08T21:58:41.219Z,409.50
2023-04-08T22:01:08.455Z,311.50
2023-04-08T22:03:35.704Z,360.40
2023-04-08T22:06:02.870Z,223.20
2023-04-08T22:08:32.478Z,278.30
2023-04-08T22:10:59.611Z,266.00
2023-04-08T22:13:27.393Z,318.50
2023-04-08T22:15:54.475Z,301.90
2023-04-08T22:18:21.591Z,303.90
2023-04-08T22:20:48.696Z,235.70
2023-04-08T22:23:15.833Z,149.20
2023-04-08T22:25:42.893Z,97.50
2023-04-08T22:28:09.985Z,61.90
2023-04-08T22:30:37.064Z,54.20
2023-04-08T22:33:04.279Z,49.60
2023-04-08T22:35:31.661Z,46.20
2023-04-08T22:37:58.810Z,39.50
2023-04-08T22:40:25.930Z,44.90
2023-04-08T22:42:53.009Z,42.20
2023-04-08T22:45:20.127Z,45.90
2023-04-08T22:47:47.341Z,43.30
2023-04-08T22:50:14.456Z,38.30
2023-04-08T22:52:42.053Z,32.20
2023-04-08T22:55:09.377Z,29.20
2023-04-08T22:57:36.704Z,23.60
2023-04-08T23:00:05.201Z,22.40
2023-04-08T23:02:32.364Z,21.10
2023-04-08T23:04:59.520Z,21.20
2023-04-08T23:07:26.591Z,21.20
2023-04-08T23:09:53.632Z,21.60
2023-04-08T23:12:20.776Z,21.30
2023-04-08T23:14:47.842Z,22.00
2023-04-08T23:17:14.827Z,20.40
2023-04-08T23:19:42.528Z,21.90
2023-04-08T23:22:09.587Z,19.00
2023-04-08T23:24:36.715Z,20.40
2023-04-08T23:27:04.006Z,19.40
2023-04-08T23:29:31.721Z,20.00
2023-04-08T23:31:58.801Z,19.90
2023-04-08T23:34:25.919Z,20.00
2023-04-08T23:36:53.123Z,25.60
2023-04-08T23:39:20.441Z,29.00
2023-04-08T23:41:47.581Z,29.20
2023-04-08T23:44:14.620Z,26.20
2023-04-08T23:46:41.695Z,23.10
2023-04-08T23:49:08.840Z,19.90
2023-04-08T23:51:38.902Z,20.30
2023-04-08T23:54:05.992Z,22.10
2023-04-08T23:56:33.054Z,23.90
2023-04-08T23:59:00.141Z,21.10
